sensor_id;sensor_type;location;lat;lon;timestamp;P1;durP1;ratioP1;P2;durP2;ratioP2
62798;SDS011;48842;51.046;13.796;2023-11-19T00:01:22;8.53;;;7.67;;
62798;SDS011;48842;51.046;13.796;2023-11-19T00:03:47;12.43;;;8.77;;
62798;SDS011;48842;51.046;13.796;2023-11-19T00:06:13;13.70;;;9.50;;
62798;SDS011;48842;51.046;13.796;2023-11-19T00:08:38;10.73;;;8.87;;
62798;SDS011;48842;51.046;13.796;2023-11-19T00:11:04;13.83;;;9.27;;
62798;SDS011;48842;51.046;13.796;2023-11-19T00:13:29;10.60;;;8.07;;
62798;SDS011;48842;51.046;13.796;2023-11-19T00:15:55;11.50;;;8.70;;
62798;SDS011;48842;51.046;13.796;2023-11-19T00:18:21;12.13;;;9.43;;
62798;SDS011;48842;51.046;13.796;2023-11-19T00:20:47;13.13;;;8.73;;
62798;SDS011;48842;51.046;13.796;2023-11-19T00:23:12;11.03;;;9.30;;
62798;SDS011;48842;51.046;13.796;2023-11-19T00:25:37;11.07;;;9.17;;
62798;SDS011;48842;51.046;13.796;2023-11-19T00:28:03;13.37;;;10.10;;
62798;SDS011;48842;51.046;13.796;2023-11-19T00:30:29;11.57;;;9.50;;
62798;SDS011;48842;51.046;13.796;2023-11-19T00:32:56;15.00;;;9.50;;
62798;SDS011;48842;51.046;13.796;2023-11-19T00:35:21;12.07;;;9.73;;
62798;SDS011;48842;51.046;13.796;2023-11-19T00:37:46;11.23;;;8.43;;
62798;SDS011;48842;51.046;13.796;2023-11-19T00:40:12;12.23;;;9.37;;
62798;SDS011;48842;51.046;13.796;2023-11-19T00:42:38;10.30;;;9.13;;
62798;SDS011;48842;51.046;13.796;2023-11-19T00:45:04;12.80;;;9.30;;
62798;SDS011;48842;51.046;13.796;2023-11-19T00:47:33;14.07;;;9.30;;
62798;SDS011;48842;51.046;13.796;2023-11-19T00:49:58;9.73;;;8.77;;
62798;SDS011;48842;51.046;13.796;2023-11-19T00:52:23;9.73;;;8.10;;
62798;SDS011;48842;51.046;13.796;2023-11-19T00:54:49;11.20;;;8.90;;
62798;SDS011;48842;51.046;13.796;2023-11-19T00:57:14;9.80;;;8.80;;
62798;SDS011;48842;51.046;13.796;2023-11-19T00:59:43;10.20;;;8.50;;
62798;SDS011;48842;51.046;13.796;2023-11-19T01:02:08;8.27;;;7.47;;
62798;SDS011;48842;51.046;13.796;2023-11-19T01:04:34;9.20;;;7.47;;
62798;SDS011;48842;51.046;13.796;2023-11-19T01:07:03;7.70;;;6.60;;
62798;SDS011;48842;51.046;13.796;2023-11-19T01:09:29;8.70;;;7.83;;
62798;SDS011;48842;51.046;13.796;2023-11-19T01:11:57;8.57;;;7.77;;
62798;SDS011;48842;51.046;13.796;2023-11-19T01:14:22;8.00;;;7.20;;
62798;SDS011;48842;51.046;13.796;2023-11-19T01:16:47;9.00;;;8.10;;
62798;SDS011;48842;51.046;13.796;2023-11-19T01:19:12;7.30;;;6.60;;
62798;SDS011;48842;51.046;13.796;2023-11-19T01:21:38;8.97;;;6.97;;
62798;SDS011;48842;51.046;13.796;2023-11-19T01:24:03;7.80;;;7.00;;
62798;SDS011;48842;51.046;13.796;2023-11-19T01:26:31;7.10;;;6.40;;
62798;SDS011;48842;51.046;13.796;2023-11-19T01:28:56;7.77;;;6.77;;
62798;SDS011;48842;51.046;13.796;2023-11-19T01:31:21;7.57;;;6.43;;
62798;SDS011;48842;51.046;13.796;2023-11-19T01:33:47;7.30;;;6.13;;
62798;SDS011;48842;51.046;13.796;2023-11-19T01:36:15;6.80;;;5.67;;
62798;SDS011;48842;51.046;13.796;2023-11-19T01:38:40;5.67;;;5.10;;
62798;SDS011;48842;51.046;13.796;2023-11-19T01:41:06;5.73;;;5.13;;
62798;SDS011;48842;51.046;13.796;2023-11-19T01:43:35;8.93;;;5.80;;
62798;SDS011;48842;51.046;13.796;2023-11-19T01:46:02;5.93;;;5.00;;
62798;SDS011;48842;51.046;13.796;2023-11-19T01:48:28;5.33;;;4.93;;
62798;SDS011;48842;51.046;13.796;2023-11-19T01:50:54;5.53;;;5.10;;
62798;SDS011;48842;51.046;13.796;2023-11-19T01:53:21;5.07;;;4.70;;
62798;SDS011;48842;51.046;13.796;2023-11-19T01:55:46;5.33;;;4.83;;
62798;SDS011;48842;51.046;13.796;2023-11-19T01:58:12;5.70;;;5.20;;
62798;SDS011;48842;51.046;13.796;2023-11-19T02:00:38;4.30;;;4.00;;
62798;SDS011;48842;51.046;13.796;2023-11-19T02:03:03;5.00;;;4.60;;
62798;SDS011;48842;51.046;13.796;2023-11-19T02:05:31;5.67;;;4.50;;
62798;SDS011;48842;51.046;13.796;2023-11-19T02:07:57;4.30;;;4.00;;
62798;SDS011;48842;51.046;13.796;2023-11-19T02:10:23;5.20;;;4.80;;
62798;SDS011;48842;51.046;13.796;2023-11-19T02:12:50;3.50;;;3.23;;
62798;SDS011;48842;51.046;13.796;2023-11-19T02:15:16;4.67;;;4.00;;
62798;SDS011;48842;51.046;13.796;2023-11-19T02:17:44;4.33;;;3.90;;
62798;SDS011;48842;51.046;13.796;2023-11-19T02:20:09;4.83;;;3.83;;
62798;SDS011;48842;51.046;13.796;2023-11-19T02:22:37;3.93;;;3.30;;
62798;SDS011;48842;51.046;13.796;2023-11-19T02:25:07;4.07;;;3.77;;
62798;SDS011;48842;51.046;13.796;2023-11-19T02:27:48;3.90;;;3.60;;
62798;SDS011;48842;51.046;13.796;2023-11-19T02:30:20;4.33;;;3.93;;
62798;SDS011;48842;51.046;13.796;2023-11-19T02:32:45;3.60;;;3.40;;
62798;SDS011;48842;51.046;13.796;2023-11-19T02:35:11;2.83;;;2.73;;
62798;SDS011;48842;51.046;13.796;2023-11-19T02:37:37;3.30;;;3.10;;
62798;SDS011;48842;51.046;13.796;2023-11-19T02:40:04;8.90;;;3.30;;
62798;SDS011;48842;51.046;13.796;2023-11-19T02:42:30;3.27;;;2.73;;
62798;SDS011;48842;51.046;13.796;2023-11-19T02:44:56;3.10;;;2.80;;
62798;SDS011;48842;51.046;13.796;2023-11-19T02:47:21;3.10;;;2.90;;
62798;SDS011;48842;51.046;13.796;2023-11-19T02:49:49;3.27;;;2.97;;
62798;SDS011;48842;51.046;13.796;2023-11-19T02:52:14;3.10;;;2.80;;
62798;SDS011;48842;51.046;13.796;2023-11-19T02:54:39;2.90;;;2.70;;
62798;SDS011;48842;51.046;13.796;2023-11-19T02:57:06;2.50;;;2.40;;
62798;SDS011;48842;51.046;13.796;2023-11-19T02:59:33;2.53;;;2.40;;
62798;SDS011;48842;51.046;13.796;2023-11-19T03:02:04;3.60;;;2.63;;
62798;SDS011;48842;51.046;13.796;2023-11-19T03:04:31;3.63;;;2.40;;
62798;SDS011;48842;51.046;13.796;2023-11-19T03:06:57;2.60;;;2.50;;
62798;SDS011;48842;51.046;13.796;2023-11-19T03:09:23;2.93;;;2.73;;
62798;SDS011;48842;51.046;13.796;2023-11-19T03:11:49;2.40;;;2.23;;
62798;SDS011;48842;51.046;13.796;2023-11-19T03:14:14;2.50;;;2.40;;
62798;SDS011;48842;51.046;13.796;2023-11-19T03:16:40;2.20;;;2.10;;
62798;SDS011;48842;51.046;13.796;2023-11-19T03:19:05;4.00;;;2.20;;
62798;SDS011;48842;51.046;13.796;2023-11-19T03:21:30;2.90;;;2.80;;
62798;SDS011;48842;51.046;13.796;2023-11-19T03:23:56;2.60;;;2.40;;
62798;SDS011;48842;51.046;13.796;2023-11-19T03:26:25;2.70;;;2.50;;
62798;SDS011;48842;51.046;13.796;2023-11-19T03:28:50;2.30;;;2.10;;
62798;SDS011;48842;51.046;13.796;2023-11-19T03:31:15;2.27;;;2.17;;
62798;SDS011;48842;51.046;13.796;2023-11-19T03:33:41;2.37;;;2.17;;
62798;SDS011;48842;51.046;13.796;2023-11-19T03:36:06;2.07;;;1.97;;
62798;SDS011;48842;51.046;13.796;2023-11-19T03:38:32;2.20;;;2.10;;
62798;SDS011;48842;51.046;13.796;2023-11-19T03:40:57;2.53;;;2.20;;
62798;SDS011;48842;51.046;13.796;2023-11-19T03:43:23;2.17;;;2.00;;
62798;SDS011;48842;51.046;13.796;2023-11-19T03:45:48;2.37;;;2.27;;
62798;SDS011;48842;51.046;13.796;2023-11-19T03:48:13;2.63;;;2.43;;
62798;SDS011;48842;51.046;13.796;2023-11-19T03:50:41;2.60;;;2.40;;
62798;SDS011;48842;51.046;13.796;2023-11-19T03:53:06;2.40;;;2.30;;
62798;SDS011;48842;51.046;13.796;2023-11-19T03:55:31;2.37;;;2.27;;
62798;SDS011;48842;51.046;13.796;2023-11-19T03:57:57;3.20;;;3.00;;
62798;SDS011;48842;51.046;13.796;2023-11-19T04:00:23;3.23;;;2.90;;
62798;SDS011;48842;51.046;13.796;2023-11-19T04:02:48;2.83;;;2.53;;
62798;SDS011;48842;51.046;13.796;2023-11-19T04:05:13;3.03;;;2.83;;
62798;SDS011;48842;51.046;13.796;2023-11-19T04:07:38;3.57;;;2.80;;
62798;SDS011;48842;51.046;13.796;2023-11-19T04:10:04;3.70;;;3.50;;
62798;SDS011;48842;51.046;13.796;2023-11-19T04:12:30;3.23;;;2.87;;
62798;SDS011;48842;51.046;13.796;2023-11-19T04:14:55;3.70;;;3.40;;
62798;SDS011;48842;51.046;13.796;2023-11-19T04:17:21;4.00;;;3.60;;
62798;SDS011;48842;51.046;13.796;2023-11-19T04:19:47;3.30;;;3.10;;
62798;SDS011;48842;51.046;13.796;2023-11-19T04:22:13;7.30;;;3.40;;
62798;SDS011;48842;51.046;13.796;2023-11-19T04:24:38;3.47;;;3.17;;
62798;SDS011;48842;51.046;13.796;2023-11-19T04:27:04;4.33;;;3.00;;
62798;SDS011;48842;51.046;13.796;2023-11-19T04:29:31;3.90;;;3.60;;
62798;SDS011;48842;51.046;13.796;2023-11-19T04:31:56;3.80;;;3.20;;
62798;SDS011;48842;51.046;13.796;2023-11-19T04:34:21;3.93;;;3.63;;
62798;SDS011;48842;51.046;13.796;2023-11-19T04:36:47;4.20;;;3.70;;
62798;SDS011;48842;51.046;13.796;2023-11-19T04:39:12;3.13;;;2.93;;
62798;SDS011;48842;51.046;13.796;2023-11-19T04:41:46;8.63;;;3.90;;
62798;SDS011;48842;51.046;13.796;2023-11-19T04:44:13;3.47;;;3.17;;
62798;SDS011;48842;51.046;13.796;2023-11-19T04:46:38;3.13;;;2.93;;
62798;SDS011;48842;51.046;13.796;2023-11-19T04:49:03;3.70;;;3.50;;
62798;SDS011;48842;51.046;13.796;2023-11-19T04:51:29;7.57;;;3.60;;
62798;SDS011;48842;51.046;13.796;2023-11-19T04:53:55;5.80;;;3.40;;
62798;SDS011;48842;51.046;13.796;2023-11-19T04:56:20;3.43;;;3.13;;
62798;SDS011;48842;51.046;13.796;2023-11-19T04:58:47;3.63;;;3.43;;
62798;SDS011;48842;51.046;13.796;2023-11-19T05:01:13;3.73;;;3.43;;
62798;SDS011;48842;51.046;13.796;2023-11-19T05:03:42;6.20;;;3.70;;
62798;SDS011;48842;51.046;13.796;2023-11-19T05:06:07;4.97;;;4.30;;
62798;SDS011;48842;51.046;13.796;2023-11-19T05:08:33;3.87;;;3.60;;
62798;SDS011;48842;51.046;13.796;2023-11-19T05:10:58;5.63;;;4.00;;
62798;SDS011;48842;51.046;13.796;2023-11-19T05:13:24;3.90;;;3.60;;
62798;SDS011;48842;51.046;13.796;2023-11-19T05:15:49;4.40;;;4.00;;
62798;SDS011;48842;51.046;13.796;2023-11-19T05:18:15;3.90;;;3.70;;
62798;SDS011;48842;51.046;13.796;2023-11-19T05:20:41;3.90;;;3.60;;
62798;SDS011;48842;51.046;13.796;2023-11-19T05:23:07;5.80;;;5.20;;
62798;SDS011;48842;51.046;13.796;2023-11-19T05:25:32;5.00;;;4.50;;
62798;SDS011;48842;51.046;13.796;2023-11-19T05:27:57;5.07;;;4.67;;
62798;SDS011;48842;51.046;13.796;2023-11-19T05:30:22;5.43;;;4.93;;
62798;SDS011;48842;51.046;13.796;2023-11-19T05:32:48;4.73;;;4.33;;
62798;SDS011;48842;51.046;13.796;2023-11-19T05:35:13;6.97;;;4.80;;
62798;SDS011;48842;51.046;13.796;2023-11-19T05:37:38;4.87;;;4.47;;
62798;SDS011;48842;51.046;13.796;2023-11-19T05:40:04;5.17;;;4.70;;
62798;SDS011;48842;51.046;13.796;2023-11-19T05:42:39;5.70;;;5.20;;
62798;SDS011;48842;51.046;13.796;2023-11-19T05:45:05;5.90;;;5.40;;
62798;SDS011;48842;51.046;13.796;2023-11-19T05:47:30;6.33;;;5.73;;
62798;SDS011;48842;51.046;13.796;2023-11-19T05:49:55;6.90;;;5.50;;
62798;SDS011;48842;51.046;13.796;2023-11-19T05:52:21;6.00;;;5.50;;
62798;SDS011;48842;51.046;13.796;2023-11-19T05:54:47;5.70;;;5.20;;
62798;SDS011;48842;51.046;13.796;2023-11-19T05:57:16;6.07;;;5.30;;
62798;SDS011;48842;51.046;13.796;2023-11-19T05:59:47;7.47;;;6.77;;
62798;SDS011;48842;51.046;13.796;2023-11-19T06:02:13;8.50;;;7.00;;
62798;SDS011;48842;51.046;13.796;2023-11-19T06:04:38;7.87;;;6.57;;
62798;SDS011;48842;51.046;13.796;2023-11-19T06:07:03;6.13;;;5.50;;
62798;SDS011;48842;51.046;13.796;2023-11-19T06:09:30;6.10;;;5.53;;
62798;SDS011;48842;51.046;13.796;2023-11-19T06:11:55;5.00;;;4.50;;
62798;SDS011;48842;51.046;13.796;2023-11-19T06:14:22;4.50;;;4.17;;
62798;SDS011;48842;51.046;13.796;2023-11-19T06:16:49;4.60;;;4.20;;
62798;SDS011;48842;51.046;13.796;2023-11-19T06:19:16;4.10;;;3.80;;
62798;SDS011;48842;51.046;13.796;2023-11-19T06:21:41;4.43;;;4.13;;
62798;SDS011;48842;51.046;13.796;2023-11-19T06:24:07;3.87;;;3.57;;
62798;SDS011;48842;51.046;13.796;2023-11-19T06:26:33;4.37;;;3.97;;
62798;SDS011;48842;51.046;13.796;2023-11-19T06:28:59;4.77;;;4.40;;
62798;SDS011;48842;51.046;13.796;2023-11-19T06:31:24;4.07;;;3.77;;
62798;SDS011;48842;51.046;13.796;2023-11-19T06:33:49;4.10;;;3.80;;
62798;SDS011;48842;51.046;13.796;2023-11-19T06:36:15;4.67;;;3.77;;
62798;SDS011;48842;51.046;13.796;2023-11-19T06:38:43;4.10;;;3.70;;
62798;SDS011;48842;51.046;13.796;2023-11-19T06:41:08;4.47;;;4.07;;
62798;SDS011;48842;51.046;13.796;2023-11-19T06:43:34;3.83;;;3.53;;
62798;SDS011;48842;51.046;13.796;2023-11-19T06:46:00;3.90;;;3.00;;
62798;SDS011;48842;51.046;13.796;2023-11-19T06:48:25;3.50;;;3.30;;
62798;SDS011;48842;51.046;13.796;2023-11-19T06:50:51;3.50;;;3.20;;
62798;SDS011;48842;51.046;13.796;2023-11-19T06:53:16;2.90;;;2.70;;
62798;SDS011;48842;51.046;13.796;2023-11-19T06:55:41;2.47;;;2.37;;
62798;SDS011;48842;51.046;13.796;2023-11-19T06:58:06;2.13;;;2.03;;
62798;SDS011;48842;51.046;13.796;2023-11-19T07:00:32;2.90;;;2.70;;
62798;SDS011;48842;51.046;13.796;2023-11-19T07:02:57;3.20;;;3.00;;
62798;SDS011;48842;51.046;13.796;2023-11-19T07:05:23;3.40;;;3.20;;
62798;SDS011;48842;51.046;13.796;2023-11-19T07:07:48;2.53;;;2.40;;
62798;SDS011;48842;51.046;13.796;2023-11-19T07:10:14;2.70;;;2.50;;
62798;SDS011;48842;51.046;13.796;2023-11-19T07:12:40;2.13;;;2.03;;
62798;SDS011;48842;51.046;13.796;2023-11-19T07:15:07;2.60;;;2.40;;
62798;SDS011;48842;51.046;13.796;2023-11-19T07:17:33;2.00;;;1.90;;
62798;SDS011;48842;51.046;13.796;2023-11-19T07:20:00;2.50;;;2.30;;
62798;SDS011;48842;51.046;13.796;2023-11-19T07:22:25;2.50;;;2.40;;
62798;SDS011;48842;51.046;13.796;2023-11-19T07:24:51;2.53;;;2.30;;
62798;SDS011;48842;51.046;13.796;2023-11-19T07:27:18;2.30;;;2.20;;
62798;SDS011;48842;51.046;13.796;2023-11-19T07:29:43;2.27;;;2.17;;
62798;SDS011;48842;51.046;13.796;2023-11-19T07:32:09;2.03;;;1.93;;
62798;SDS011;48842;51.046;13.796;2023-11-19T07:34:35;2.40;;;2.30;;
62798;SDS011;48842;51.046;13.796;2023-11-19T07:37:00;2.70;;;2.60;;
62798;SDS011;48842;51.046;13.796;2023-11-19T07:39:27;2.33;;;2.20;;
62798;SDS011;48842;51.046;13.796;2023-11-19T07:41:53;2.30;;;2.20;;
62798;SDS011;48842;51.046;13.796;2023-11-19T07:44:19;3.00;;;2.80;;
62798;SDS011;48842;51.046;13.796;2023-11-19T07:46:44;2.20;;;2.10;;
62798;SDS011;48842;51.046;13.796;2023-11-19T07:49:10;2.43;;;2.33;;
62798;SDS011;48842;51.046;13.796;2023-11-19T07:51:35;1.97;;;1.70;;
62798;SDS011;48842;51.046;13.796;2023-11-19T07:54:01;2.27;;;2.17;;
62798;SDS011;48842;51.046;13.796;2023-11-19T07:56:26;2.03;;;1.93;;
62798;SDS011;48842;51.046;13.796;2023-11-19T07:58:52;2.00;;;1.90;;
62798;SDS011;48842;51.046;13.796;2023-11-19T08:01:17;2.80;;;2.60;;
62798;SDS011;48842;51.046;13.796;2023-11-19T08:03:43;2.17;;;2.07;;
62798;SDS011;48842;51.046;13.796;2023-11-19T08:06:08;2.33;;;2.23;;
62798;SDS011;48842;51.046;13.796;2023-11-19T08:08:33;2.70;;;2.50;;
62798;SDS011;48842;51.046;13.796;2023-11-19T08:11:00;1.93;;;1.83;;
62798;SDS011;48842;51.046;13.796;2023-11-19T08:13:25;2.70;;;2.60;;
62798;SDS011;48842;51.046;13.796;2023-11-19T08:15:51;4.40;;;4.20;;
62798;SDS011;48842;51.046;13.796;2023-11-19T08:18:17;2.63;;;2.53;;
62798;SDS011;48842;51.046;13.796;2023-11-19T08:20:43;2.43;;;2.33;;
62798;SDS011;48842;51.046;13.796;2023-11-19T08:23:09;2.60;;;2.50;;
62798;SDS011;48842;51.046;13.796;2023-11-19T08:25:35;2.67;;;2.57;;
62798;SDS011;48842;51.046;13.796;2023-11-19T08:28:00;2.27;;;2.17;;
62798;SDS011;48842;51.046;13.796;2023-11-19T08:30:26;2.83;;;2.67;;
62798;SDS011;48842;51.046;13.796;2023-11-19T08:32:52;3.57;;;3.00;;
62798;SDS011;48842;51.046;13.796;2023-11-19T08:35:17;2.90;;;2.70;;
62798;SDS011;48842;51.046;13.796;2023-11-19T08:37:42;2.27;;;2.17;;
62798;SDS011;48842;51.046;13.796;2023-11-19T08:40:08;2.57;;;2.37;;
62798;SDS011;48842;51.046;13.796;2023-11-19T08:42:34;2.30;;;2.20;;
62798;SDS011;48842;51.046;13.796;2023-11-19T08:45:00;2.70;;;2.60;;
62798;SDS011;48842;51.046;13.796;2023-11-19T08:47:25;2.70;;;2.50;;
62798;SDS011;48842;51.046;13.796;2023-11-19T08:49:53;3.00;;;2.80;;
62798;SDS011;48842;51.046;13.796;2023-11-19T08:52:18;2.50;;;2.40;;
62798;SDS011;48842;51.046;13.796;2023-11-19T08:54:44;2.43;;;2.27;;
62798;SDS011;48842;51.046;13.796;2023-11-19T08:57:09;2.23;;;2.13;;
62798;SDS011;48842;51.046;13.796;2023-11-19T08:59:34;2.13;;;2.03;;
62798;SDS011;48842;51.046;13.796;2023-11-19T09:02:00;2.90;;;2.50;;
62798;SDS011;48842;51.046;13.796;2023-11-19T09:04:25;2.90;;;2.73;;
62798;SDS011;48842;51.046;13.796;2023-11-19T09:06:50;3.30;;;3.00;;
62798;SDS011;48842;51.046;13.796;2023-11-19T09:09:16;3.57;;;3.27;;
62798;SDS011;48842;51.046;13.796;2023-11-19T09:11:41;3.03;;;2.83;;
62798;SDS011;48842;51.046;13.796;2023-11-19T09:14:07;5.10;;;3.30;;
62798;SDS011;48842;51.046;13.796;2023-11-19T09:16:32;4.90;;;3.70;;
62798;SDS011;48842;51.046;13.796;2023-11-19T09:18:58;3.43;;;3.17;;
62798;SDS011;48842;51.046;13.796;2023-11-19T09:21:24;4.77;;;3.90;;
62798;SDS011;48842;51.046;13.796;2023-11-19T09:23:54;8.07;;;3.77;;
62798;SDS011;48842;51.046;13.796;2023-11-19T09:26:19;3.90;;;3.17;;
62798;SDS011;48842;51.046;13.796;2023-11-19T09:28:45;3.73;;;3.40;;
62798;SDS011;48842;51.046;13.796;2023-11-19T09:31:16;4.97;;;3.97;;
62798;SDS011;48842;51.046;13.796;2023-11-19T09:33:42;7.33;;;4.60;;
62798;SDS011;48842;51.046;13.796;2023-11-19T09:36:08;4.50;;;4.10;;
62798;SDS011;48842;51.046;13.796;2023-11-19T09:38:35;7.73;;;4.90;;
62798;SDS011;48842;51.046;13.796;2023-11-19T09:41:03;7.30;;;5.80;;
62798;SDS011;48842;51.046;13.796;2023-11-19T09:43:33;7.50;;;5.30;;
62798;SDS011;48842;51.046;13.796;2023-11-19T09:45:59;6.10;;;4.53;;
62798;SDS011;48842;51.046;13.796;2023-11-19T09:48:32;6.53;;;5.87;;
62798;SDS011;48842;51.046;13.796;2023-11-19T09:50:58;5.20;;;4.53;;
62798;SDS011;48842;51.046;13.796;2023-11-19T09:53:24;4.10;;;3.80;;
62798;SDS011;48842;51.046;13.796;2023-11-19T09:55:49;5.70;;;4.07;;
62798;SDS011;48842;51.046;13.796;2023-11-19T09:58:15;4.70;;;4.30;;
62798;SDS011;48842;51.046;13.796;2023-11-19T10:00:43;6.13;;;4.57;;
62798;SDS011;48842;51.046;13.796;2023-11-19T10:03:08;4.60;;;4.17;;
62798;SDS011;48842;51.046;13.796;2023-11-19T10:05:37;4.40;;;4.00;;
62798;SDS011;48842;51.046;13.796;2023-11-19T10:08:04;4.80;;;3.20;;
62798;SDS011;48842;51.046;13.796;2023-11-19T10:10:30;4.40;;;3.00;;
62798;SDS011;48842;51.046;13.796;2023-11-19T10:12:55;3.83;;;3.50;;
62798;SDS011;48842;51.046;13.796;2023-11-19T10:15:21;6.13;;;2.80;;
62798;SDS011;48842;51.046;13.796;2023-11-19T10:17:49;7.27;;;2.00;;
62798;SDS011;48842;51.046;13.796;2023-11-19T10:20:14;3.47;;;1.43;;
62798;SDS011;48842;51.046;13.796;2023-11-19T10:22:39;3.20;;;1.40;;
62798;SDS011;48842;51.046;13.796;2023-11-19T10:25:05;2.73;;;1.77;;
62798;SDS011;48842;51.046;13.796;2023-11-19T10:27:47;2.30;;;1.50;;
62798;SDS011;48842;51.046;13.796;2023-11-19T10:30:12;2.20;;;1.00;;
62798;SDS011;48842;51.046;13.796;2023-11-19T10:32:37;5.47;;;1.70;;
62798;SDS011;48842;51.046;13.796;2023-11-19T10:35:06;2.00;;;1.40;;
62798;SDS011;48842;51.046;13.796;2023-11-19T10:37:32;3.00;;;2.30;;
62798;SDS011;48842;51.046;13.796;2023-11-19T10:39:57;8.53;;;3.03;;
62798;SDS011;48842;51.046;13.796;2023-11-19T10:42:23;1.70;;;1.47;;
62798;SDS011;48842;51.046;13.796;2023-11-19T10:44:48;4.10;;;1.40;;
62798;SDS011;48842;51.046;13.796;2023-11-19T10:47:14;3.97;;;1.30;;
62798;SDS011;48842;51.046;13.796;2023-11-19T10:49:43;2.90;;;1.20;;
62798;SDS011;48842;51.046;13.796;2023-11-19T10:52:09;1.20;;;1.10;;
62798;SDS011;48842;51.046;13.796;2023-11-19T10:54:34;1.23;;;0.97;;
62798;SDS011;48842;51.046;13.796;2023-11-19T10:57:00;3.03;;;0.97;;
62798;SDS011;48842;51.046;13.796;2023-11-19T10:59:30;2.13;;;1.17;;
62798;SDS011;48842;51.046;13.796;2023-11-19T11:01:57;3.97;;;2.63;;
62798;SDS011;48842;51.046;13.796;2023-11-19T11:04:24;1.70;;;1.37;;
62798;SDS011;48842;51.046;13.796;2023-11-19T11:06:51;1.03;;;0.90;;
62798;SDS011;48842;51.046;13.796;2023-11-19T11:09:19;1.60;;;0.87;;
62798;SDS011;48842;51.046;13.796;2023-11-19T11:11:46;1.33;;;0.80;;
62798;SDS011;48842;51.046;13.796;2023-11-19T11:14:12;1.70;;;0.97;;
62798;SDS011;48842;51.046;13.796;2023-11-19T11:16:44;1.17;;;1.00;;
62798;SDS011;48842;51.046;13.796;2023-11-19T11:19:11;4.43;;;1.00;;
62798;SDS011;48842;51.046;13.796;2023-11-19T11:21:37;1.33;;;1.10;;
62798;SDS011;48842;51.046;13.796;2023-11-19T11:24:10;2.17;;;1.40;;
62798;SDS011;48842;51.046;13.796;2023-11-19T11:27:10;1.37;;;0.80;;
62798;SDS011;48842;51.046;13.796;2023-11-19T11:32:51;2.60;;;1.17;;
62798;SDS011;48842;51.046;13.796;2023-11-19T11:35:41;2.27;;;1.27;;
62798;SDS011;48842;51.046;13.796;2023-11-19T11:38:44;1.43;;;1.33;;
62798;SDS011;48842;51.046;13.796;2023-11-19T11:41:25;4.20;;;1.30;;
62798;SDS011;48842;51.046;13.796;2023-11-19T11:43:51;6.47;;;1.30;;
62798;SDS011;48842;51.046;13.796;2023-11-19T11:49:04;1.63;;;1.30;;
62798;SDS011;48842;51.046;13.796;2023-11-19T12:02:07;2.43;;;1.43;;
62798;SDS011;48842;51.046;13.796;2023-11-19T12:04:37;5.00;;;1.80;;
62798;SDS011;48842;51.046;13.796;2023-11-19T12:07:05;9.07;;;1.83;;
62798;SDS011;48842;51.046;13.796;2023-11-19T12:09:31;3.47;;;1.47;;
62798;SDS011;48842;51.046;13.796;2023-11-19T12:12:07;11.93;;;2.50;;
62798;SDS011;48842;51.046;13.796;2023-11-19T12:20:01;5.50;;;1.90;;
62798;SDS011;48842;51.046;13.796;2023-11-19T12:22:30;5.73;;;2.00;;
62798;SDS011;48842;51.046;13.796;2023-11-19T12:24:55;5.53;;;2.20;;
62798;SDS011;48842;51.046;13.796;2023-11-19T12:27:21;6.67;;;2.30;;
62798;SDS011;48842;51.046;13.796;2023-11-19T12:29:49;7.13;;;2.70;;
62798;SDS011;48842;51.046;13.796;2023-11-19T12:32:15;12.10;;;2.13;;
62798;SDS011;48842;51.046;13.796;2023-11-19T12:34:41;5.03;;;2.03;;
62798;SDS011;48842;51.046;13.796;2023-11-19T12:37:06;6.50;;;2.67;;
62798;SDS011;48842;51.046;13.796;2023-11-19T12:39:33;6.20;;;1.87;;
62798;SDS011;48842;51.046;13.796;2023-11-19T12:41:58;6.33;;;1.93;;
62798;SDS011;48842;51.046;13.796;2023-11-19T12:44:24;7.20;;;2.37;;
62798;SDS011;48842;51.046;13.796;2023-11-19T12:46:58;5.57;;;2.17;;
62798;SDS011;48842;51.046;13.796;2023-11-19T12:49:31;6.77;;;2.40;;
62798;SDS011;48842;51.046;13.796;2023-11-19T12:51:57;5.60;;;1.87;;
62798;SDS011;48842;51.046;13.796;2023-11-19T12:54:32;5.90;;;2.03;;
62798;SDS011;48842;51.046;13.796;2023-11-19T12:56:58;6.23;;;2.20;;
62798;SDS011;48842;51.046;13.796;2023-11-19T12:59:24;7.00;;;1.70;;
62798;SDS011;48842;51.046;13.796;2023-11-19T13:01:59;9.97;;;2.97;;
62798;SDS011;48842;51.046;13.796;2023-11-19T13:04:30;4.13;;;1.60;;
62798;SDS011;48842;51.046;13.796;2023-11-19T13:07:00;10.37;;;3.23;;
62798;SDS011;48842;51.046;13.796;2023-11-19T13:09:26;8.00;;;2.50;;
62798;SDS011;48842;51.046;13.796;2023-11-19T13:11:52;10.53;;;3.23;;
62798;SDS011;48842;51.046;13.796;2023-11-19T13:14:18;12.77;;;2.83;;
62798;SDS011;48842;51.046;13.796;2023-11-19T13:16:44;5.77;;;1.80;;
62798;SDS011;48842;51.046;13.796;2023-11-19T13:19:12;14.20;;;2.90;;
62798;SDS011;48842;51.046;13.796;2023-11-19T13:21:39;9.63;;;2.30;;
62798;SDS011;48842;51.046;13.796;2023-11-19T13:24:05;10.50;;;2.17;;
62798;SDS011;48842;51.046;13.796;2023-11-19T13:26:31;6.53;;;2.57;;
62798;SDS011;48842;51.046;13.796;2023-11-19T13:28:56;5.37;;;2.00;;
62798;SDS011;48842;51.046;13.796;2023-11-19T13:31:22;8.77;;;2.00;;
62798;SDS011;48842;51.046;13.796;2023-11-19T13:33:47;13.13;;;2.67;;
62798;SDS011;48842;51.046;13.796;2023-11-19T13:36:13;14.10;;;2.53;;
62798;SDS011;48842;51.046;13.796;2023-11-19T13:38:38;6.57;;;1.60;;
62798;SDS011;48842;51.046;13.796;2023-11-19T13:41:05;5.40;;;2.00;;
62798;SDS011;48842;51.046;13.796;2023-11-19T13:43:31;9.53;;;2.30;;
62798;SDS011;48842;51.046;13.796;2023-11-19T13:45:57;10.60;;;2.37;;
62798;SDS011;48842;51.046;13.796;2023-11-19T13:48:23;10.80;;;2.70;;
62798;SDS011;48842;51.046;13.796;2023-11-19T13:50:49;8.90;;;2.80;;
62798;SDS011;48842;51.046;13.796;2023-11-19T13:53:15;9.70;;;2.83;;
62798;SDS011;48842;51.046;13.796;2023-11-19T13:55:41;11.47;;;3.07;;
62798;SDS011;48842;51.046;13.796;2023-11-19T13:58:07;9.13;;;2.77;;
62798;SDS011;48842;51.046;13.796;2023-11-19T14:00:32;11.43;;;2.57;;
62798;SDS011;48842;51.046;13.796;2023-11-19T14:02:58;8.43;;;2.47;;
62798;SDS011;48842;51.046;13.796;2023-11-19T14:05:23;14.00;;;2.60;;
62798;SDS011;48842;51.046;13.796;2023-11-19T14:07:48;12.80;;;2.30;;
62798;SDS011;48842;51.046;13.796;2023-11-19T14:10:14;10.00;;;2.27;;
62798;SDS011;48842;51.046;13.796;2023-11-19T14:12:41;5.23;;;2.23;;
62798;SDS011;48842;51.046;13.796;2023-11-19T14:15:06;10.40;;;2.87;;
62798;SDS011;48842;51.046;13.796;2023-11-19T14:17:42;13.97;;;2.80;;
62798;SDS011;48842;51.046;13.796;2023-11-19T14:20:07;13.43;;;3.00;;
62798;SDS011;48842;51.046;13.796;2023-11-19T14:22:40;7.70;;;2.33;;
62798;SDS011;48842;51.046;13.796;2023-11-19T14:25:07;7.63;;;2.10;;
62798;SDS011;48842;51.046;13.796;2023-11-19T14:27:38;11.47;;;2.33;;
62798;SDS011;48842;51.046;13.796;2023-11-19T14:30:05;10.20;;;3.13;;
62798;SDS011;48842;51.046;13.796;2023-11-19T14:32:31;10.80;;;3.23;;
62798;SDS011;48842;51.046;13.796;2023-11-19T14:34:56;12.57;;;2.30;;
62798;SDS011;48842;51.046;13.796;2023-11-19T14:37:22;12.37;;;3.07;;
62798;SDS011;48842;51.046;13.796;2023-11-19T14:39:47;10.20;;;2.77;;
62798;SDS011;48842;51.046;13.796;2023-11-19T14:42:12;13.17;;;2.40;;
62798;SDS011;48842;51.046;13.796;2023-11-19T14:44:38;11.50;;;2.90;;
62798;SDS011;48842;51.046;13.796;2023-11-19T14:47:04;10.73;;;2.30;;
62798;SDS011;48842;51.046;13.796;2023-11-19T14:49:30;10.47;;;2.20;;
62798;SDS011;48842;51.046;13.796;2023-11-19T14:51:55;21.13;;;4.30;;